Time;durP1;ratioP1;P1;durP2;ratioP2;P2;SDS_P1;SDS_P2;PMS_P1;PMS_P2;Temp;Humidity;BMP_temperature;BMP_pressure;BME280_temperature;BME280_humidity;BME280_pressure;Samples;Min_cycle;Max_cycle;Signal;HPM_P1;HPM_P2
2024/02/07 00:01:00;;;;;;;68.10;35.92;;;205.00;2252.80;;;;;;5117955;28;20493;-81
2024/02/07 00:03:26;;;;;;;67.18;37.00;;;205.00;2252.80;;;;;;5117612;28;20042;-83
2024/02/07 00:05:53;;;;;;;45.67;25.77;;;204.90;2252.80;;;;;;5117563;28;20094;-82
2024/02/07 00:08:19;;;;;;;44.83;24.42;;;204.80;2252.80;;;;;;5118039;28;20016;-82
2024/02/07 00:10:45;;;;;;;38.47;20.10;;;180.10;2252.80;;;;;;5116724;28;20031;-78
2024/02/07 00:13:11;;;;;;;37.78;20.23;;;180.10;2252.80;;;;;;5090384;28;20399;-82
2024/02/07 00:15:37;;;;;;;38.97;22.05;;;180.00;2252.80;;;;;;5097696;28;20081;-81
2024/02/07 00:18:03;;;;;;;44.17;24.23;;;180.00;2252.80;;;;;;5078981;28;20111;-82
2024/02/07 00:20:29;;;;;;;52.70;27.25;;;180.00;2252.80;;;;;;5096817;28;20092;-82
2024/02/07 00:22:54;;;;;;;53.33;26.42;;;180.10;2252.80;;;;;;5097671;28;20032;-81
2024/02/07 00:25:20;;;;;;;40.58;20.10;;;180.10;2252.80;;;;;;5096503;28;20497;-82
2024/02/07 00:27:46;;;;;;;31.25;16.05;;;180.00;2252.80;;;;;;5101134;28;20273;-79
2024/02/07 00:30:12;;;;;;;30.98;15.48;;;;;;;;;;5081862;28;20047;-81
2024/02/07 00:32:38;;;;;;;36.75;16.95;;;154.20;2252.80;;;;;;5081454;28;20051;-82
2024/02/07 00:35:04;;;;;;;33.65;16.17;;;;;;;;;;5097401;28;20463;-83
2024/02/07 00:37:30;;;;;;;27.20;14.45;;;153.90;2252.80;;;;;;5097213;28;20024;-81
2024/02/07 00:39:56;;;;;;;25.80;13.70;;;;;;;;;;5097288;28;20020;-82
2024/02/07 00:42:22;;;;;;;25.77;14.18;;;;;;;;;;5096197;28;20043;-82
2024/02/07 00:44:48;;;;;;;22.30;11.90;;;;;;;;;;5097587;28;20099;-83
2024/02/07 00:47:14;;;;;;;22.48;13.82;;;;;;;;;;5078064;28;20028;-82
2024/02/07 00:49:40;;;;;;;24.25;14.25;;;;;;;;;;5079095;28;20024;-83
2024/02/07 00:52:06;;;;;;;31.33;15.93;;;154.10;2252.80;;;;;;5096669;28;20441;-82
2024/02/07 00:54:32;;;;;;;29.00;15.52;;;153.90;2252.80;;;;;;5096481;28;20028;-81
2024/02/07 00:56:58;;;;;;;34.20;19.00;;;153.70;2252.80;;;;;;5079196;28;20032;-83
2024/02/07 00:59:23;;;;;;;70.18;47.60;;;153.80;2252.80;;;;;;5096972;28;20471;-78
2024/02/07 01:01:53;;;;;;;62.67;41.53;;;153.80;2252.80;;;;;;5097084;28;20064;-83
2024/02/07 01:04:19;;;;;;;81.63;54.17;;;153.90;2252.80;;;;;;5078711;28;20020;-82
2024/02/07 01:06:45;;;;;;;66.80;45.67;;;;;;;;;;5098214;28;20078;-82
2024/02/07 01:09:10;;;;;;;41.58;26.33;;;154.40;2252.80;;;;;;5078758;28;20391;-82
2024/02/07 01:11:36;;;;;;;35.05;21.02;;;154.20;2252.80;;;;;;5097425;28;20020;-82
2024/02/07 01:14:03;;;;;;;51.97;33.97;;;154.30;2252.80;;;;;;5112452;28;20114;-79
2024/02/07 01:16:28;;;;;;;45.90;30.80;;;154.30;2252.80;;;;;;5097823;28;20595;-83
2024/02/07 01:18:54;;;;;;;42.45;25.75;;;154.30;2252.80;;;;;;5116570;28;20051;-79
2024/02/07 01:21:21;;;;;;;34.25;17.90;;;154.30;2252.80;;;;;;5098399;28;20028;-82
2024/02/07 01:23:46;;;;;;;36.92;18.77;;;154.20;2252.80;;;;;;5115093;28;20077;-82
2024/02/07 01:26:14;;;;;;;20.67;11.77;;;153.90;2252.80;;;;;;5116875;28;20470;-84
2024/02/07 01:28:40;;;;;;;23.23;10.90;;;128.50;2252.80;;;;;;5116286;28;20024;-83
2024/02/07 01:31:07;;;;;;;27.92;13.13;;;128.40;2252.80;;;;;;5098618;28;20442;-84
2024/02/07 01:33:35;;;;;;;33.25;15.00;;;128.20;2252.80;;;;;;5116249;28;20103;-82
2024/02/07 01:36:01;;;;;;;58.13;20.00;;;128.30;2252.80;;;;;;5116238;28;20024;-82
2024/02/07 01:38:27;;;;;;;45.50;18.58;;;128.40;2252.80;;;;;;5082663;28;20028;-82
2024/02/07 01:40:57;;;;;;;40.30;17.20;;;128.40;2252.80;;;;;;5101286;28;20020;-82
2024/02/07 01:43:28;;;;;;;33.22;14.98;;;128.30;2252.80;;;;;;5118052;28;20094;-83
2024/02/07 01:45:55;;;;;;;32.88;15.35;;;128.40;2252.80;;;;;;5116419;28;20031;-83
2024/02/07 01:48:22;;;;;;;31.40;16.10;;;128.60;2252.80;;;;;;5116602;28;20026;-84
2024/02/07 01:50:52;;;;;;;31.30;14.63;;;128.70;2252.80;;;;;;5116545;28;20055;-83
2024/02/07 01:53:19;;;;;;;30.05;15.80;;;128.80;2252.80;;;;;;5122390;28;20024;-82
2024/02/07 01:55:49;;;;;;;28.80;15.10;;;153.60;2252.80;;;;;;5122305;28;20024;-82
2024/02/07 01:58:16;;;;;;;27.85;14.70;;;153.80;2252.80;;;;;;5117802;28;20024;-83
2024/02/07 02:00:45;;;;;;;27.25;13.70;;;153.80;2252.80;;;;;;5098479;28;20474;-81
2024/02/07 02:03:12;;;;;;;24.05;13.95;;;153.80;2252.80;;;;;;5098374;28;20540;-82
2024/02/07 02:05:40;;;;;;;26.20;13.18;;;153.90;2252.80;;;;;;5116388;28;20394;-77
2024/02/07 02:08:06;;;;;;;26.08;13.85;;;153.90;2252.80;;;;;;5097107;28;20032;-82
2024/02/07 02:10:32;;;;;;;35.88;16.60;;;153.90;2252.80;;;;;;5097382;28;20467;-80
2024/02/07 02:12:58;;;;;;;50.88;19.67;;;153.80;2252.80;;;;;;5114823;28;20058;-84
2024/02/07 02:15:27;;;;;;;47.90;21.05;;;154.00;2252.80;;;;;;5115501;28;20016;-81
2024/02/07 02:17:53;;;;;;;32.78;17.17;;;154.40;2252.80;;;;;;5115745;28;20395;-80
2024/02/07 02:20:20;;;;;;;32.80;16.67;;;153.70;2252.80;;;;;;5115816;28;20026;-81
2024/02/07 02:23:26;;;;;;;34.28;16.52;;;153.70;2252.80;;;;;;5115620;28;20058;-82
2024/02/07 02:26:10;;;;;;;33.92;15.65;;;153.60;2252.80;;;;;;5115351;28;20024;-82
2024/02/07 02:29:09;;;;;;;32.45;15.60;;;128.90;2252.80;;;;;;5115849;28;20031;-79
2024/02/07 02:31:36;;;;;;;31.80;16.10;;;128.80;2252.80;;;;;;5115846;28;20142;-81
2024/02/07 02:34:06;;;;;;;31.20;14.35;;;128.80;2252.80;;;;;;5115404;28;20479;-82
2024/02/07 02:36:35;;;;;;;35.40;15.65;;;128.80;2252.80;;;;;;5115543;28;20020;-83
2024/02/07 02:39:01;;;;;;;24.15;13.10;;;128.80;2252.80;;;;;;5115465;28;20373;-79
2024/02/07 02:41:29;;;;;;;24.35;13.23;;;128.90;2252.80;;;;;;5115177;28;20094;-81
2024/02/07 02:43:55;;;;;;;23.85;12.73;;;153.70;2252.80;;;;;;5115469;28;20038;-81
2024/02/07 02:46:21;;;;;;;21.73;12.50;;;153.70;2252.80;;;;;;5115426;28;20024;-80
2024/02/07 02:48:46;;;;;;;20.60;12.30;;;153.80;2252.80;;;;;;5115283;28;20407;-83
2024/02/07 02:51:12;;;;;;;22.23;12.38;;;153.90;2252.80;;;;;;5115333;28;20062;-82
2024/02/07 02:53:38;;;;;;;23.10;12.57;;;153.80;2252.80;;;;;;5114994;28;20039;-80
2024/02/07 02:56:05;;;;;;;23.35;12.77;;;154.00;2252.80;;;;;;5114906;28;20459;-82
2024/02/07 02:58:32;;;;;;;23.17;12.98;;;154.10;2252.80;;;;;;5114750;28;20028;-84
2024/02/07 03:01:03;;;;;;;25.52;13.05;;;154.20;2252.80;;;;;;5114793;28;20027;-81
2024/02/07 03:03:31;;;;;;;24.05;13.38;;;154.20;2252.80;;;;;;5114772;28;20031;-81
2024/02/07 03:05:58;;;;;;;28.70;14.18;;;154.20;2252.80;;;;;;5115002;28;20023;-81
2024/02/07 03:08:39;;;;;;;29.40;14.85;;;154.30;2252.80;;;;;;5114772;28;20485;-82
2024/02/07 03:11:09;;;;;;;35.83;18.25;;;154.20;2252.80;;;;;;5114723;28;20026;-82
2024/02/07 03:13:37;;;;;;;31.92;15.70;;;154.20;2252.80;;;;;;5114804;28;20127;-80
2024/02/07 03:16:07;;;;;;;31.50;16.13;;;154.20;2252.80;;;;;;5114516;28;20024;-82
2024/02/07 03:18:35;;;;;;;27.05;14.38;;;154.20;2252.80;;;;;;5115485;28;20042;-81
2024/02/07 03:21:08;;;;;;;25.60;14.55;;;154.10;2252.80;;;;;;5114619;28;20023;-82
2024/02/07 03:23:34;;;;;;;24.00;12.77;;;154.00;2252.80;;;;;;5114490;28;20031;-81
2024/02/07 03:26:01;;;;;;;25.50;14.13;;;154.10;2252.80;;;;;;5114581;28;20467;-82
2024/02/07 03:28:27;;;;;;;27.38;15.07;;;154.10;2252.80;;;;;;5113920;28;20028;-79
2024/02/07 03:30:56;;;;;;;26.50;13.45;;;154.00;2252.80;;;;;;5113837;28;20020;-80
2024/02/07 03:33:22;;;;;;;23.40;12.13;;;154.10;2252.80;;;;;;5114599;28;20374;-81
2024/02/07 03:35:48;;;;;;;23.65;12.98;;;154.10;2252.80;;;;;;5114017;28;20030;-83
2024/02/07 03:38:14;;;;;;;21.00;12.05;;;154.20;2252.80;;;;;;5114253;28;20024;-78
2024/02/07 03:40:39;;;;;;;20.67;12.00;;;154.30;2252.80;;;;;;5114274;28;20031;-79
2024/02/07 03:43:06;;;;;;;23.98;12.90;;;154.30;2252.80;;;;;;5114755;28;20063;-82
2024/02/07 03:45:33;;;;;;;25.75;13.13;;;154.40;2048.00;;;;;;5115022;28;20456;-78
2024/02/07 03:47:59;;;;;;;21.35;12.68;;;154.40;2252.80;;;;;;5114688;28;20443;-81
2024/02/07 03:50:25;;;;;;;21.27;11.93;;;154.40;2252.80;;;;;;5113984;28;20380;-82
2024/02/07 03:52:51;;;;;;;22.63;12.43;;;154.30;2252.80;;;;;;5114337;28;20024;-83
2024/02/07 03:55:18;;;;;;;23.45;12.73;;;154.30;2252.80;;;;;;5113570;28;20420;-82
2024/02/07 03:57:44;;;;;;;24.65;12.98;;;154.30;2252.80;;;;;;5095519;28;20046;-81
2024/02/07 04:00:16;;;;;;;29.33;16.23;;;154.20;2252.80;;;;;;5114666;28;20024;-80
2024/02/07 04:02:45;;;;;;;24.40;14.13;;;154.00;2252.80;;;;;;5114231;28;20122;-82
2024/02/07 04:05:18;;;;;;;26.00;15.05;;;154.00;2252.80;;;;;;5114189;28;20023;-83
2024/02/07 04:07:43;;;;;;;26.20;13.85;;;154.10;2252.80;;;;;;5114192;28;20027;-82
2024/02/07 04:10:11;;;;;;;23.95;14.02;;;154.10;1945.60;;;;;;5113892;28;20024;-78
2024/02/07 05:15:54;;;;;;;21.08;11.70;;;;;;;;;;5117142;28;19918;-84
2024/02/07 05:18:23;;;;;;;22.77;12.65;;;;;;;;;;5117321;28;20012;-82
2024/02/07 05:20:49;;;;;;;24.85;12.30;;;;;;;;;;5117111;28;20559;-78
2024/02/07 05:23:19;;;;;;;22.27;12.07;;;;;;;;;;5117355;28;20116;-82
2024/02/07 05:25:47;;;;;;;23.70;12.80;;;;;;;;;;5118843;28;20016;-82
2024/02/07 05:28:13;;;;;;;34.78;21.15;;;179.60;2252.80;;;;;;5116715;28;20024;-83
2024/02/07 05:30:40;;;;;;;34.22;20.98;;;179.40;2252.80;;;;;;5117014;28;20489;-83
2024/02/07 05:33:07;;;;;;;26.33;13.70;;;179.40;2252.80;;;;;;5116641;28;20467;-82
2024/02/07 05:35:33;;;;;;;28.38;12.27;;;179.40;2252.80;;;;;;5117060;28;20020;-80
2024/02/07 05:37:59;;;;;;;24.27;11.10;;;179.40;2252.80;;;;;;5099667;28;20035;-82
2024/02/07 05:40:25;;;;;;;26.25;12.50;;;179.40;2252.80;;;;;;5117072;28;20420;-77
2024/02/07 05:42:50;;;;;;;27.98;13.38;;;179.40;2252.80;;;;;;5116118;28;20032;-81
2024/02/07 05:45:16;;;;;;;22.92;13.00;;;179.30;2252.80;;;;;;5116066;28;20069;-84
2024/02/07 05:47:44;;;;;;;25.85;14.10;;;179.30;2252.80;;;;;;5098003;28;20039;-82
2024/02/07 05:50:10;;;;;;;23.02;13.13;;;179.40;2252.80;;;;;;5115688;28;20083;-82
2024/02/07 05:52:38;;;;;;;24.63;13.27;;;179.40;2252.80;;;;;;5115956;28;20094;-83
2024/02/07 05:55:07;;;;;;;26.90;14.50;;;179.30;2252.80;;;;;;5115978;28;20032;-81
2024/02/07 05:57:35;;;;;;;23.50;13.18;;;179.30;2252.80;;;;;;5115669;28;20023;-84
2024/02/07 06:00:05;;;;;;;24.52;15.32;;;179.30;2252.80;;;;;;5097304;28;20062;-78
2024/02/07 06:02:31;;;;;;;31.85;14.80;;;179.30;2252.80;;;;;;5114853;28;20035;-82
2024/02/07 06:05:01;;;;;;;33.45;16.45;;;179.30;2252.80;;;;;;5115304;28;20024;-79
2024/02/07 06:07:27;;;;;;;54.35;21.63;;;179.30;2252.80;;;;;;5115771;28;20019;-83
2024/02/07 06:09:52;;;;;;;85.50;28.02;;;179.30;2252.80;;;;;;5116020;28;20378;-83
2024/02/07 06:12:22;;;;;;;37.35;16.40;;;179.30;2252.80;;;;;;5115985;28;20533;-83
2024/02/07 06:14:48;;;;;;;40.50;17.70;;;179.30;2252.80;;;;;;5115944;28;20027;-83
2024/02/07 06:17:17;;;;;;;37.63;19.27;;;179.30;2252.80;;;;;;5115229;28;20084;-82
2024/02/07 06:19:42;;;;;;;57.35;28.85;;;179.30;2252.80;;;;;;5115894;28;20019;-83
2024/02/07 06:22:08;;;;;;;80.15;39.17;;;179.50;2252.80;;;;;;5114912;28;20573;-83
2024/02/07 06:24:34;;;;;;;68.63;34.00;;;179.60;2252.80;;;;;;5116307;28;20073;-84
2024/02/07 06:26:59;;;;;;;54.78;27.50;;;179.60;2252.80;;;;;;5114967;28;20020;-83
2024/02/07 06:29:25;;;;;;;51.95;27.98;;;179.60;2252.80;;;;;;5117053;28;20024;-81
2024/02/07 06:31:51;;;;;;;48.00;26.02;;;179.80;2252.80;;;;;;5114864;28;20359;-82
2024/02/07 06:34:17;;;;;;;37.58;19.80;;;179.80;2252.80;;;;;;5096854;28;20067;-79
2024/02/07 06:36:43;;;;;;;45.63;24.45;;;179.60;2252.80;;;;;;5115387;28;20050;-80
2024/02/07 06:39:08;;;;;;;44.25;23.08;;;179.60;2252.80;;;;;;5115547;28;20503;-81
2024/02/07 06:41:34;;;;;;;43.53;22.48;;;179.60;2252.80;;;;;;5114924;28;20488;-82
2024/02/07 06:44:00;;;;;;;58.00;32.65;;;179.60;2252.80;;;;;;5115248;28;20023;-83
2024/02/07 06:46:25;;;;;;;33.72;18.60;;;179.60;2252.80;;;;;;5116635;28;20031;-83
2024/02/07 06:48:51;;;;;;;29.00;16.00;;;179.70;2252.80;;;;;;5114823;28;20031;-83
2024/02/07 06:51:17;;;;;;;23.58;14.57;;;179.80;2252.80;;;;;;5115204;28;20498;-82
2024/02/07 06:53:43;;;;;;;30.20;13.30;;;;;;;;;;5114834;28;20023;-83
2024/02/07 06:56:09;;;;;;;23.48;12.80;;;230.70;2252.80;;;;;;5114114;28;20031;-83
2024/02/07 06:58:34;;;;;;;20.42;11.23;;;256.00;2252.80;;;;;;5114503;28;20126;-82
2024/02/07 07:01:00;;;;;;;18.15;10.90;;;281.90;2278.40;;;;;;5114355;28;20450;-81
2024/02/07 07:03:26;;;;;;;20.17;11.02;;;307.80;2304.00;;;;;;5114497;28;20043;-82
2024/02/07 07:05:52;;;;;;;22.13;11.57;;;358.40;2329.60;;;;;;5114612;28;20034;-82
2024/02/07 07:08:18;;;;;;;22.98;13.82;;;333.70;2329.60;;;;;;5114497;28;20049;-81
2024/02/07 07:10:44;;;;;;;23.55;13.75;;;333.40;2329.60;;;;;;5119522;28;20019;-79
2024/02/07 07:13:11;;;;;;;25.00;15.30;;;307.50;2304.00;;;;;;5120057;28;20055;-80
2024/02/07 07:15:36;;;;;;;27.33;14.32;;;282.40;2278.40;;;;;;5115414;28;20528;-81
2024/02/07 07:18:04;;;;;;;22.92;15.50;;;307.30;2304.00;;;;;;5120226;28;20083;-78
2024/02/07 07:20:32;;;;;;;28.75;16.75;;;333.20;2329.60;;;;;;5096444;28;20475;-80
2024/02/07 07:22:58;;;;;;;32.50;13.43;;;358.50;2329.60;;;;;;5113824;28;20039;-78
2024/02/07 07:25:24;;;;;;;22.30;11.73;;;333.60;2329.60;;;;;;5114679;28;20477;-80
2024/02/07 07:27:50;;;;;;;22.70;12.05;;;358.40;2329.60;;;;;;5113630;28;20024;-82
2024/02/07 07:30:15;;;;;;;23.35;14.00;;;358.80;2329.60;;;;;;5095870;28;20116;-79
2024/02/07 07:32:44;;;;;;;25.17;16.88;;;333.20;2329.60;;;;;;5115545;28;20069;-80
2024/02/07 07:35:11;;;;;;;26.92;15.05;;;333.20;2329.60;;;;;;5095158;28;20071;-79
2024/02/07 07:37:37;;;;;;;22.55;15.05;;;358.90;2329.60;;;;;;5113763;28;20146;-80
2024/02/07 07:40:04;;;;;;;23.67;16.35;;;333.20;2329.60;;;;;;5113717;28;20023;-81
2024/02/07 07:42:30;;;;;;;24.48;16.08;;;308.10;2304.00;;;;;;5113769;28;20505;-80
2024/02/07 07:44:55;;;;;;;22.50;14.38;;;307.80;2304.00;;;;;;5096984;28;20035;-81
2024/02/07 07:47:21;;;;;;;27.38;18.30;;;307.60;2304.00;;;;;;5116061;28;20026;-80
2024/02/07 07:49:50;;;;;;;22.33;14.02;;;307.80;2304.00;;;;;;5115781;28;20080;-81
2024/02/07 07:52:15;;;;;;;17.77;11.07;;;307.80;2304.00;;;;;;5095717;28;20040;-81
2024/02/07 07:54:42;;;;;;;18.83;11.48;;;307.80;2304.00;;;;;;5113506;28;20023;-81
2024/02/07 07:57:08;;;;;;;18.42;10.23;;;307.70;2304.00;;;;;;5093826;28;20608;-80
2024/02/07 07:59:33;;;;;;;16.52;10.25;;;307.60;2304.00;;;;;;5111954;28;20103;-81
2024/02/07 08:02:02;;;;;;;19.70;10.40;;;307.50;2304.00;;;;;;5111914;28;20475;-80
2024/02/07 08:04:28;;;;;;;22.90;11.43;;;307.50;2304.00;;;;;;5111831;28;20024;-80
2024/02/07 08:06:57;;;;;;;21.92;11.38;;;307.40;2304.00;;;;;;5112849;28;20019;-80
2024/02/07 08:09:23;;;;;;;19.52;10.00;;;307.50;2304.00;;;;;;5097798;28;20038;-80
2024/02/07 08:11:49;;;;;;;18.55;9.68;;;307.50;2304.00;;;;;;5115808;28;20012;-79
2024/02/07 08:14:15;;;;;;;26.90;12.65;;;307.50;2304.00;;;;;;5115744;28;20048;-80
2024/02/07 08:16:43;;;;;;;23.30;11.82;;;307.50;2304.00;;;;;;5115800;28;20039;-80
2024/02/07 08:19:11;;;;;;;26.23;12.07;;;307.60;2304.00;;;;;;5116293;28;20102;-80
2024/02/07 08:21:37;;;;;;;22.93;11.73;;;307.60;2304.00;;;;;;5097503;28;20020;-80
2024/02/07 08:24:03;;;;;;;22.23;12.27;;;307.70;2304.00;;;;;;5115638;28;20494;-80
2024/02/07 08:26:29;;;;;;;25.50;12.13;;;307.80;2304.00;;;;;;5115638;28;20023;-80
2024/02/07 08:28:54;;;;;;;19.15;10.65;;;307.90;2304.00;;;;;;5115742;28;20042;-79
2024/02/07 08:31:21;;;;;;;14.75;9.25;;;308.00;2304.00;;;;;;5117173;28;20019;-80
2024/02/07 08:33:47;;;;;;;12.23;7.72;;;308.10;2304.00;;;;;;5099141;28;20069;-79
2024/02/07 08:36:12;;;;;;;21.40;11.23;;;332.80;2329.60;;;;;;5117461;27;20023;-80
2024/02/07 08:38:41;;;;;;;15.80;7.47;;;332.90;2329.60;;;;;;5116051;28;20016;-80
2024/02/07 08:41:09;;;;;;;11.40;7.13;;;333.00;2329.60;;;;;;5116919;28;20420;-80
2024/02/07 08:43:35;;;;;;;12.52;7.32;;;384.10;2278.40;;;;;;5097785;28;20043;-79
2024/02/07 08:46:01;;;;;;;14.35;7.70;;;384.40;2201.60;;;;;;5116808;28;20034;-81
2024/02/07 08:48:27;;;;;;;18.90;9.40;;;384.80;2176.00;;;;;;5116445;28;20038;-82
2024/02/07 08:50:52;;;;;;;13.23;7.82;;;409.90;2150.40;;;;;;5117035;28;20064;-81
2024/02/07 08:53:21;;;;;;;13.10;7.90;;;410.50;2022.40;;;;;;5098533;28;20043;-80
2024/02/07 08:55:46;;;;;;;13.52;8.68;;;435.90;1945.60;;;;;;5117226;28;20470;-82
2024/02/07 08:58:12;;;;;;;18.52;8.82;;;435.80;1920.00;;;;;;5116745;28;20152;-82
2024/02/07 09:00:39;;;;;;;16.73;8.25;;;435.70;1920.00;;;;;;5096598;28;20483;-80
2024/02/07 09:03:08;;;;;;;17.63;8.82;;;435.80;1920.00;;;;;;5114929;28;20114;-83
2024/02/07 09:05:33;;;;;;;21.85;11.07;;;460.80;1920.00;;;;;;5099888;28;20493;-82
2024/02/07 09:07:59;;;;;;;19.88;10.38;;;461.20;1843.20;;;;;;5118633;28;20027;-81
2024/02/07 09:10:25;;;;;;;24.55;11.75;;;460.90;1868.80;;;;;;5098812;28;20031;-81
2024/02/07 09:12:50;;;;;;;41.53;19.00;;;460.90;1868.80;;;;;;5090717;28;20048;-81
2024/02/07 09:15:16;;;;;;;30.92;14.50;;;460.90;1868.80;;;;;;5094870;28;20494;-81
2024/02/07 09:17:42;;;;;;;15.25;9.13;;;435.60;1894.40;;;;;;5096044;28;20090;-81
2024/02/07 09:20:08;;;;;;;23.58;12.25;;;435.50;1920.00;;;;;;5095233;28;20093;-81
2024/02/07 09:22:33;;;;;;;20.60;10.43;;;410.40;1971.20;;;;;;5094944;28;20032;-80
2024/02/07 09:24:59;;;;;;;14.48;7.70;;;435.30;1971.20;;;;;;5094175;28;20413;-81
2024/02/07 09:27:25;;;;;;;12.73;6.82;;;435.40;1971.20;;;;;;5094148;28;20095;-80
2024/02/07 09:29:53;;;;;;;16.55;8.23;;;410.10;2022.40;;;;;;5093945;28;20027;-82
2024/02/07 09:32:18;;;;;;;12.52;8.23;;;435.30;1971.20;;;;;;5094284;28;20027;-78
2024/02/07 09:34:44;;;;;;;11.98;6.97;;;435.60;1945.60;;;;;;5093971;28;20479;-78
2024/02/07 09:37:10;;;;;;;13.73;7.70;;;436.00;1894.40;;;;;;5093937;28;20016;-79
2024/02/07 09:39:36;;;;;;;11.43;7.32;;;435.90;1894.40;;;;;;5093951;28;20027;-79
2024/02/07 09:42:07;;;;;;;12.07;7.30;;;436.10;1894.40;;;;;;5093695;28;20095;-80
2024/02/07 09:44:35;;;;;;;12.40;5.95;;;436.10;1920.00;;;;;;5093462;28;20032;-80
2024/02/07 09:47:02;;;;;;;11.05;6.57;;;461.00;1868.80;;;;;;5093733;28;20471;-80
2024/02/07 09:49:28;;;;;;;11.05;6.13;;;461.30;1868.80;;;;;;5094705;28;20028;-81
2024/02/07 09:51:54;;;;;;;13.23;7.38;;;461.40;1843.20;;;;;;5095844;28;20023;-81
2024/02/07 09:54:20;;;;;;;12.65;7.00;;;461.30;1868.80;;;;;;5095721;28;20024;-82
2024/02/07 09:56:47;;;;;;;15.88;7.78;;;486.40;2201.60;;;;;;5095371;28;20032;-82
2024/02/07 09:59:13;;;;;;;10.30;6.40;;;486.40;1792.00;;;;;;5095576;28;20032;-80
2024/02/07 10:01:39;;;;;;;12.18;6.72;;;486.40;1792.00;;;;;;5094950;28;20487;-79
2024/02/07 10:04:09;;;;;;;25.17;13.18;;;;;;;;;;5094646;28;20038;-82
2024/02/07 10:06:36;;;;;;;14.07;6.93;;;486.80;1766.40;;;;;;5094937;28;20028;-81
2024/02/07 10:09:03;;;;;;;13.80;7.35;;;486.40;1792.00;;;;;;5077193;28;20024;-80
2024/02/07 10:11:31;;;;;;;11.93;7.68;;;512.20;1766.40;;;;;;5076677;28;20027;-82
2024/02/07 10:13:58;;;;;;;11.73;5.90;;;486.70;1740.80;;;;;;5075887;28;20032;-80
2024/02/07 10:16:24;;;;;;;13.43;6.10;;;487.00;1715.20;;;;;;5075965;28;20555;-81
2024/02/07 10:18:51;;;;;;;11.90;6.82;;;487.20;1689.60;;;;;;5076306;28;20071;-80
2024/02/07 10:21:19;;;;;;;13.93;6.70;;;487.30;1689.60;;;;;;5094397;28;20065;-81
2024/02/07 10:23:45;;;;;;;22.48;15.27;;;486.80;1715.20;;;;;;5095002;28;20067;-80
2024/02/07 10:26:13;;;;;;;11.60;6.35;;;487.00;1715.20;;;;;;5094006;28;20028;-80
2024/02/07 10:28:39;;;;;;;13.23;7.20;;;487.10;1715.20;;;;;;5075706;28;20451;-80
2024/02/07 10:31:05;;;;;;;12.13;6.20;;;486.70;1740.80;;;;;;5075040;28;20118;-80
2024/02/07 10:33:40;;;;;;;549.47;200.68;;;486.70;1740.80;;;;;;5076472;28;20623;-80
2024/02/07 10:36:10;;;;;;;14.80;7.78;;;512.20;1715.20;;;;;;5095015;28;20028;-80
2024/02/07 10:38:36;;;;;;;13.45;7.57;;;487.00;1715.20;;;;;;5075996;28;20026;-81
2024/02/07 10:41:02;;;;;;;12.63;8.05;;;512.00;1689.60;;;;;;5075219;28;20036;-80
2024/02/07 10:43:33;;;;;;;11.55;6.18;;;487.20;1689.60;;;;;;5093939;28;20430;-81
2024/02/07 10:46:18;;;;;;;16.58;7.45;;;486.80;1715.20;;;;;;5075664;28;20075;-80
2024/02/07 10:48:44;;;;;;;10.02;5.80;;;486.90;1715.20;;;;;;5094036;28;20110;-81
2024/02/07 10:51:10;;;;;;;10.35;5.85;;;486.90;1689.60;;;;;;5075634;28;20509;-80
2024/02/07 10:53:36;;;;;;;11.60;7.18;;;486.80;1715.20;;;;;;5076623;28;20108;-81
2024/02/07 10:56:06;;;;;;;10.65;6.63;;;486.90;1689.60;;;;;;5093987;28;20114;-79
2024/02/07 10:58:33;;;;;;;13.77;6.88;;;487.20;1689.60;;;;;;5094072;28;20020;-80
2024/02/07 11:00:59;;;;;;;15.70;6.32;;;487.10;1689.60;;;;;;5093696;28;20028;-79
2024/02/07 11:03:30;;;;;;;10.90;5.68;;;487.20;1689.60;;;;;;5094148;28;20043;-79
2024/02/07 11:05:57;;;;;;;12.00;6.90;;;487.20;1689.60;;;;;;5093295;28;20027;-81
2024/02/07 11:08:25;;;;;;;12.73;7.40;;;487.30;1689.60;;;;;;5093757;28;20028;-81
2024/02/07 11:10:53;;;;;;;13.10;7.55;;;512.10;1664.00;;;;;;5093758;28;20020;-81
2024/02/07 11:13:22;;;;;;;14.43;8.05;;;512.20;1664.00;;;;;;5103478;28;20047;-78
2024/02/07 11:15:48;;;;;;;11.63;6.82;;;487.30;1689.60;;;;;;5114005;28;20393;-80
2024/02/07 11:18:14;;;;;;;13.65;6.93;;;486.90;1689.60;;;;;;5096022;28;20024;-79
2024/02/07 11:20:44;;;;;;;13.38;7.07;;;486.90;1715.20;;;;;;5114066;28;20027;-79
2024/02/07 11:23:19;;;;;;;13.85;7.32;;;487.00;1715.20;;;;;;5095469;28;20494;-79
2024/02/07 11:25:46;;;;;;;17.20;9.35;;;487.20;1689.60;;;;;;5114701;28;20421;-79
2024/02/07 11:28:12;;;;;;;18.48;8.77;;;512.10;1689.60;;;;;;5113835;28;20462;-79
2024/02/07 11:30:39;;;;;;;10.38;6.32;;;486.50;1740.80;;;;;;5113821;28;20028;-79
2024/02/07 11:33:05;;;;;;;18.00;10.43;;;461.40;1792.00;;;;;;5113117;28;20031;-79
2024/02/07 11:35:35;;;;;;;17.83;10.15;;;460.90;1843.20;;;;;;5113681;28;20375;-81
2024/02/07 11:38:03;;;;;;;18.10;9.73;;;436.00;1868.80;;;;;;5113790;28;20024;-81
2024/02/07 11:40:40;;;;;;;24.48;13.40;;;436.10;1868.80;;;;;;5095177;28;20483;-79
2024/02/07 11:43:10;;;;;;;16.42;8.75;;;436.10;1868.80;;;;;;5112765;28;20028;-80
2024/02/07 11:45:42;;;;;;;20.50;11.38;;;435.80;1894.40;;;;;;5113237;28;20406;-81
2024/02/07 11:48:24;;;;;;;33.83;19.92;;;435.70;1920.00;;;;;;5113499;28;20020;-81
2024/02/07 11:50:50;;;;;;;19.77;10.32;;;435.70;1920.00;;;;;;5113829;28;20534;-80
2024/02/07 11:53:28;;;;;;;24.95;14.18;;;435.50;1945.60;;;;;;5113881;28;20036;-80
2024/02/07 11:55:54;;;;;;;20.42;10.63;;;435.70;1920.00;;;;;;5114338;28;20024;-78
2024/02/07 11:58:22;;;;;;;19.23;9.93;;;461.00;1894.40;;;;;;5113880;28;20583;-79
2024/02/07 12:00:49;;;;;;;11.57;7.20;;;461.00;1868.80;;;;;;5113524;28;20479;-79
2024/02/07 12:03:16;;;;;;;17.42;8.20;;;460.80;1868.80;;;;;;5113398;28;20043;-81
2024/02/07 12:05:43;;;;;;;14.70;7.45;;;436.10;1843.20;;;;;;5113175;28;20023;-79
2024/02/07 12:08:11;;;;;;;14.25;8.15;;;436.00;1843.20;;;;;;5113293;28;20034;-81
2024/02/07 12:10:36;;;;;;;12.05;6.07;;;435.70;1843.20;;;;;;5113829;28;20474;-81
2024/02/07 12:13:02;;;;;;;13.85;6.93;;;435.60;1894.40;;;;;;5112533;28;20366;-81
2024/02/07 12:15:31;;;;;;;8.90;5.03;;;435.50;1920.00;;;;;;5112573;28;20024;-80
2024/02/07 12:17:58;;;;;;;9.32;5.28;;;435.50;1920.00;;;;;;5112118;28;20053;-79
2024/02/07 12:20:31;;;;;;;10.85;6.18;;;435.40;1894.40;;;;;;5112850;28;20031;-79
2024/02/07 12:23:00;;;;;;;11.85;7.20;;;435.40;1894.40;;;;;;5094195;28;20032;-81
2024/02/07 12:25:27;;;;;;;10.05;5.45;;;435.40;1894.40;;;;;;5112361;28;20084;-80
2024/02/07 12:27:55;;;;;;;13.35;6.80;;;435.30;1894.40;;;;;;5094199;28;20023;-79
2024/02/07 12:30:21;;;;;;;13.35;7.13;;;435.30;1920.00;;;;;;5102544;28;20087;-79
2024/02/07 12:32:47;;;;;;;13.20;8.50;;;435.20;1894.40;;;;;;5119574;28;20039;-79
2024/02/07 12:35:12;;;;;;;18.17;8.40;;;410.50;1920.00;;;;;;5113745;28;20127;-79
2024/02/07 12:37:40;;;;;;;12.57;6.18;;;410.50;1920.00;;;;;;5094415;28;20042;-80
2024/02/07 12:40:15;;;;;;;13.23;6.70;;;410.50;1920.00;;;;;;5094343;28;20028;-79
2024/02/07 12:42:43;;;;;;;12.40;6.25;;;410.40;1971.20;;;;;;5112535;28;20039;-80
2024/02/07 12:45:13;;;;;;;12.80;5.55;;;410.40;1920.00;;;;;;5111924;28;20026;-80
2024/02/07 12:47:43;;;;;;;13.55;6.25;;;410.40;1894.40;;;;;;5112653;28;20023;-80
2024/02/07 12:50:11;;;;;;;10.35;5.60;;;410.40;1894.40;;;;;;5112030;28;20513;-81
2024/02/07 12:52:37;;;;;;;11.45;6.00;;;410.40;1920.00;;;;;;5112777;28;20019;-80
2024/02/07 12:55:04;;;;;;;11.77;5.30;;;410.30;1920.00;;;;;;5115842;28;20026;-79
2024/02/07 12:57:30;;;;;;;10.65;5.20;;;410.30;1920.00;;;;;;5116117;28;20024;-79
2024/02/07 13:00:13;;;;;;;11.82;5.80;;;410.20;1920.00;;;;;;5117816;28;20408;-80
2024/02/07 13:02:48;;;;;;;8.77;4.25;;;410.20;1920.00;;;;;;5119215;28;20035;-79
2024/02/07 13:05:15;;;;;;;14.50;5.40;;;410.00;1945.60;;;;;;5116257;28;20019;-81
2024/02/07 13:07:42;;;;;;;11.95;5.57;;;409.90;1996.80;;;;;;5116584;28;20016;-81
2024/02/07 13:10:09;;;;;;;12.93;5.70;;;409.90;2099.20;;;;;;5097681;28;20070;-78
2024/02/07 13:12:35;;;;;;;17.25;8.38;;;409.90;1971.20;;;;;;5021818;28;2664036;-80